sensor_id;sensor_type;location;lat;lon;timestamp;temperature;humidity
22450;DHT22;11392;57.390;-2.468;2024-03-23T00:53:18;5.00;99.90
22450;DHT22;11392;57.390;-2.468;2024-03-23T00:55:45;5.00;99.90
22450;DHT22;11392;57.390;-2.468;2024-03-23T00:58:11;5.00;99.90
22450;DHT22;11392;57.390;-2.468;2024-03-23T01:00:37;4.90;99.90
22450;DHT22;11392;57.390;-2.468;2024-03-23T01:03:03;4.90;99.90
22450;DHT22;11392;57.390;-2.468;2024-03-23T01:05:30;4.90;99.90
22450;DHT22;11392;57.390;-2.468;2024-03-23T01:07:55;4.90;99.90
22450;DHT22;11392;57.390;-2.468;2024-03-23T01:10:22;4.90;99.90
22450;DHT22;11392;57.390;-2.468;2024-03-23T01:12:48;4.90;99.90
22450;DHT22;11392;57.390;-2.468;2024-03-23T01:15:14;4.90;99.90
22450;DHT22;11392;57.390;-2.468;2024-03-23T01:17:39;4.90;99.90
22450;DHT22;11392;57.390;-2.468;2024-03-23T01:20:06;4.90;99.90
22450;DHT22;11392;57.390;-2.468;2024-03-23T01:22:32;4.90;99.90
22450;DHT22;11392;57.390;-2.468;2024-03-23T01:24:58;4.90;99.90
22450;DHT22;11392;57.390;-2.468;2024-03-23T01:27:24;4.90;99.90
22450;DHT22;11392;57.390;-2.468;2024-03-23T01:29:51;4.90;99.90
22450;DHT22;11392;57.390;-2.468;2024-03-23T01:32:18;4.90;99.90
22450;DHT22;11392;57.390;-2.468;2024-03-23T01:34:44;5.00;99.90
22450;DHT22;11392;57.390;-2.468;2024-03-23T01:37:10;5.00;99.90
22450;DHT22;11392;57.390;-2.468;2024-03-23T01:39:36;5.00;99.90
22450;DHT22;11392;57.390;-2.468;2024-03-23T01:42:02;5.10;99.90
22450;DHT22;11392;57.390;-2.468;2024-03-23T01:44:29;5.00;99.90
22450;DHT22;11392;57.390;-2.468;2024-03-23T01:46:55;5.00;99.90
22450;DHT22;11392;57.390;-2.468;2024-03-23T01:49:21;5.10;99.90
22450;DHT22;11392;57.390;-2.468;2024-03-23T01:51:47;5.00;99.90
22450;DHT22;11392;57.390;-2.468;2024-03-23T01:54:13;5.00;99.90
22450;DHT22;11392;57.390;-2.468;2024-03-23T01:56:39;5.00;99.90
22450;DHT22;11392;57.390;-2.468;2024-03-23T01:59:05;5.00;99.90
22450;DHT22;11392;57.390;-2.468;2024-03-23T02:01:32;5.00;99.90
22450;DHT22;11392;57.390;-2.468;2024-03-23T02:03:58;5.00;99.90
22450;DHT22;11392;57.390;-2.468;2024-03-23T02:06:24;5.10;99.90
22450;DHT22;11392;57.390;-2.468;2024-03-23T02:08:51;5.10;99.90
22450;DHT22;11392;57.390;-2.468;2024-03-23T02:11:17;5.10;99.90
22450;DHT22;11392;57.390;-2.468;2024-03-23T02:13:43;5.10;99.90
22450;DHT22;11392;57.390;-2.468;2024-03-23T02:16:09;5.10;99.90
22450;DHT22;11392;57.390;-2.468;2024-03-23T02:18:35;5.10;99.90
22450;DHT22;11392;57.390;-2.468;2024-03-23T02:21:01;5.10;99.90
22450;DHT22;11392;57.390;-2.468;2024-03-23T02:23:27;5.10;99.90
22450;DHT22;11392;57.390;-2.468;2024-03-23T02:25:53;5.10;99.90
22450;DHT22;11392;57.390;-2.468;2024-03-23T02:28:20;5.10;99.90
22450;DHT22;11392;57.390;-2.468;2024-03-23T02:30:46;5.00;99.90
22450;DHT22;11392;57.390;-2.468;2024-03-23T02:33:12;5.00;99.90
22450;DHT22;11392;57.390;-2.468;2024-03-23T02:35:38;5.00;99.90
22450;DHT22;11392;57.390;-2.468;2024-03-23T02:38:04;5.00;99.90
22450;DHT22;11392;57.390;-2.468;2024-03-23T02:40:30;5.00;99.90
22450;DHT22;11392;57.390;-2.468;2024-03-23T02:42:56;5.00;99.90
22450;DHT22;11392;57.390;-2.468;2024-03-23T02:45:22;5.10;99.90
22450;DHT22;11392;57.390;-2.468;2024-03-23T02:47:47;5.10;99.90
22450;DHT22;11392;57.390;-2.468;2024-03-23T02:50:18;5.00;99.90
22450;DHT22;11392;57.390;-2.468;2024-03-23T02:52:44;5.10;99.90
22450;DHT22;11392;57.390;-2.468;2024-03-23T02:55:10;5.00;99.90
22450;DHT22;11392;57.390;-2.468;2024-03-23T02:57:36;5.00;99.90
22450;DHT22;11392;57.390;-2.468;2024-03-23T03:00:03;5.00;99.90
22450;DHT22;11392;57.390;-2.468;2024-03-23T03:02:29;4.90;99.90
22450;DHT22;11392;57.390;-2.468;2024-03-23T03:04:55;4.90;99.90
22450;DHT22;11392;57.390;-2.468;2024-03-23T03:07:21;4.90;99.90
22450;DHT22;11392;57.390;-2.468;2024-03-23T03:09:47;4.90;99.90
22450;DHT22;11392;57.390;-2.468;2024-03-23T03:12:13;4.90;99.90
22450;DHT22;11392;57.390;-2.468;2024-03-23T03:14:39;4.90;99.90
22450;DHT22;11392;57.390;-2.468;2024-03-23T03:17:05;4.90;99.90
22450;DHT22;11392;57.390;-2.468;2024-03-23T03:19:31;4.80;99.90
22450;DHT22;11392;57.390;-2.468;2024-03-23T03:21:58;4.80;99.90
22450;DHT22;11392;57.390;-2.468;2024-03-23T03:24:24;4.70;99.90
22450;DHT22;11392;57.390;-2.468;2024-03-23T03:26:50;4.70;99.90
22450;DHT22;11392;57.390;-2.468;2024-03-23T03:29:16;4.70;99.90
22450;DHT22;11392;57.390;-2.468;2024-03-23T03:31:42;4.60;99.90
22450;DHT22;11392;57.390;-2.468;2024-03-23T03:34:09;4.60;99.90
22450;DHT22;11392;57.390;-2.468;2024-03-23T03:36:35;4.70;99.90
22450;DHT22;11392;57.390;-2.468;2024-03-23T03:39:01;4.70;99.90
22450;DHT22;11392;57.390;-2.468;2024-03-23T03:41:29;4.60;99.90
22450;DHT22;11392;57.390;-2.468;2024-03-23T03:43:55;4.60;99.90
22450;DHT22;11392;57.390;-2.468;2024-03-23T03:46:21;4.70;99.90
22450;DHT22;11392;57.390;-2.468;2024-03-23T03:48:47;4.70;99.90
22450;DHT22;11392;57.390;-2.468;2024-03-23T03:51:14;4.70;99.90
22450;DHT22;11392;57.390;-2.468;2024-03-23T03:53:40;4.70;99.90
22450;DHT22;11392;57.390;-2.468;2024-03-23T03:56:06;4.70;99.90
22450;DHT22;11392;57.390;-2.468;2024-03-23T03:58:32;4.70;99.90
22450;DHT22;11392;57.390;-2.468;2024-03-23T04:00:58;4.70;99.90
22450;DHT22;11392;57.390;-2.468;2024-03-23T04:03:24;4.70;99.90
22450;DHT22;11392;57.390;-2.468;2024-03-23T04:05:54;4.70;99.90
22450;DHT22;11392;57.390;-2.468;2024-03-23T04:08:20;4.70;99.90
22450;DHT22;11392;57.390;-2.468;2024-03-23T04:10:46;4.60;99.90
22450;DHT22;11392;57.390;-2.468;2024-03-23T04:13:13;4.60;99.90
22450;DHT22;11392;57.390;-2.468;2024-03-23T04:15:39;4.60;99.90
22450;DHT22;11392;57.390;-2.468;2024-03-23T04:18:05;4.50;99.90
22450;DHT22;11392;57.390;-2.468;2024-03-23T04:20:31;4.50;99.90
22450;DHT22;11392;57.390;-2.468;2024-03-23T04:22:58;4.40;99.90
22450;DHT22;11392;57.390;-2.468;2024-03-23T04:25:24;4.40;99.90
22450;DHT22;11392;57.390;-2.468;2024-03-23T04:27:51;4.40;99.90
22450;DHT22;11392;57.390;-2.468;2024-03-23T04:30:17;4.40;99.90
22450;DHT22;11392;57.390;-2.468;2024-03-23T04:32:43;4.40;99.90
22450;DHT22;11392;57.390;-2.468;2024-03-23T04:35:09;4.40;99.90
22450;DHT22;11392;57.390;-2.468;2024-03-23T04:37:38;4.30;99.90
22450;DHT22;11392;57.390;-2.468;2024-03-23T04:40:08;4.40;99.90
22450;DHT22;11392;57.390;-2.468;2024-03-23T04:42:34;4.30;99.90
22450;DHT22;11392;57.390;-2.468;2024-03-23T04:45:00;4.30;99.90
22450;DHT22;11392;57.390;-2.468;2024-03-23T04:47:26;4.30;99.90
22450;DHT22;11392;57.390;-2.468;2024-03-23T04:49:52;4.30;99.90
22450;DHT22;11392;57.390;-2.468;2024-03-23T04:52:18;4.40;99.90
22450;DHT22;11392;57.390;-2.468;2024-03-23T04:54:45;4.40;99.90
22450;DHT22;11392;57.390;-2.468;2024-03-23T04:57:13;4.40;99.90
22450;DHT22;11392;57.390;-2.468;2024-03-23T04:59:39;4.60;99.90
22450;DHT22;11392;57.390;-2.468;2024-03-23T05:02:05;4.60;99.90
22450;DHT22;11392;57.390;-2.468;2024-03-23T05:04:31;4.60;99.90
22450;DHT22;11392;57.390;-2.468;2024-03-23T05:06:58;4.60;99.90
22450;DHT22;11392;57.390;-2.468;2024-03-23T05:09:24;4.70;99.90
22450;DHT22;11392;57.390;-2.468;2024-03-23T05:11:50;4.70;99.90
22450;DHT22;11392;57.390;-2.468;2024-03-23T05:14:16;4.70;99.90
22450;DHT22;11392;57.390;-2.468;2024-03-23T05:16:42;4.70;99.90
22450;DHT22;11392;57.390;-2.468;2024-03-23T05:19:08;4.70;99.90
22450;DHT22;11392;57.390;-2.468;2024-03-23T05:21:34;4.70;99.90
22450;DHT22;11392;57.390;-2.468;2024-03-23T05:24:00;4.80;99.90
22450;DHT22;11392;57.390;-2.468;2024-03-23T05:26:26;4.80;99.90
22450;DHT22;11392;57.390;-2.468;2024-03-23T05:28:52;4.80;99.90
22450;DHT22;11392;57.390;-2.468;2024-03-23T05:31:29;4.80;99.90
22450;DHT22;11392;57.390;-2.468;2024-03-23T05:33:55;4.80;99.90
22450;DHT22;11392;57.390;-2.468;2024-03-23T05:36:22;4.90;99.90
22450;DHT22;11392;57.390;-2.468;2024-03-23T05:38:48;4.90;99.90
22450;DHT22;11392;57.390;-2.468;2024-03-23T05:41:14;4.90;99.90
22450;DHT22;11392;57.390;-2.468;2024-03-23T05:43:40;4.90;99.90
22450;DHT22;11392;57.390;-2.468;2024-03-23T05:46:06;4.90;99.90
22450;DHT22;11392;57.390;-2.468;2024-03-23T05:48:33;4.90;99.90
22450;DHT22;11392;57.390;-2.468;2024-03-23T05:50:59;4.90;99.90
22450;DHT22;11392;57.390;-2.468;2024-03-23T05:53:25;4.90;99.90
22450;DHT22;11392;57.390;-2.468;2024-03-23T05:55:59;4.90;99.90
22450;DHT22;11392;57.390;-2.468;2024-03-23T05:58:25;4.90;99.90
22450;DHT22;11392;57.390;-2.468;2024-03-23T06:00:58;4.80;99.90
22450;DHT22;11392;57.390;-2.468;2024-03-23T06:03:25;4.80;99.90
22450;DHT22;11392;57.390;-2.468;2024-03-23T06:05:51;4.80;99.90
22450;DHT22;11392;57.390;-2.468;2024-03-23T06:08:19;4.80;99.90
22450;DHT22;11392;57.390;-2.468;2024-03-23T06:10:46;4.80;99.90
22450;DHT22;11392;57.390;-2.468;2024-03-23T06:13:12;4.70;99.90
22450;DHT22;11392;57.390;-2.468;2024-03-23T06:15:39;4.80;99.90
22450;DHT22;11392;57.390;-2.468;2024-03-23T06:18:05;4.80;99.90
22450;DHT22;11392;57.390;-2.468;2024-03-23T06:20:33;4.90;99.90
22450;DHT22;11392;57.390;-2.468;2024-03-23T06:23:01;4.90;99.90
22450;DHT22;11392;57.390;-2.468;2024-03-23T06:25:27;4.90;99.90
22450;DHT22;11392;57.390;-2.468;2024-03-23T06:27:53;4.90;99.90
22450;DHT22;11392;57.390;-2.468;2024-03-23T06:30:19;5.00;99.90
22450;DHT22;11392;57.390;-2.468;2024-03-23T06:32:45;4.90;99.90
22450;DHT22;11392;57.390;-2.468;2024-03-23T06:35:11;4.90;99.90
22450;DHT22;11392;57.390;-2.468;2024-03-23T06:37:37;5.00;99.90
22450;DHT22;11392;57.390;-2.468;2024-03-23T06:40:05;5.00;99.90
22450;DHT22;11392;57.390;-2.468;2024-03-23T06:42:35;5.00;99.90
22450;DHT22;11392;57.390;-2.468;2024-03-23T06:45:02;5.00;99.90
22450;DHT22;11392;57.390;-2.468;2024-03-23T06:47:30;5.00;99.90
22450;DHT22;11392;57.390;-2.468;2024-03-23T06:49:56;5.10;99.90
22450;DHT22;11392;57.390;-2.468;2024-03-23T06:52:22;5.20;99.90
22450;DHT22;11392;57.390;-2.468;2024-03-23T06:54:48;5.30;99.90
22450;DHT22;11392;57.390;-2.468;2024-03-23T06:57:14;5.20;99.90
22450;DHT22;11392;57.390;-2.468;2024-03-23T06:59:40;5.20;99.90
22450;DHT22;11392;57.390;-2.468;2024-03-23T07:02:06;5.30;99.90
22450;DHT22;11392;57.390;-2.468;2024-03-23T07:04:35;5.20;99.90
22450;DHT22;11392;57.390;-2.468;2024-03-23T07:07:01;5.20;99.90
22450;DHT22;11392;57.390;-2.468;2024-03-23T07:09:28;5.30;99.90
22450;DHT22;11392;57.390;-2.468;2024-03-23T07:11:55;5.80;99.90
22450;DHT22;11392;57.390;-2.468;2024-03-23T07:14:22;6.20;99.90
22450;DHT22;11392;57.390;-2.468;2024-03-23T07:16:48;6.50;99.90
22450;DHT22;11392;57.390;-2.468;2024-03-23T07:19:18;6.70;99.90
22450;DHT22;11392;57.390;-2.468;2024-03-23T07:21:45;6.70;99.90
22450;DHT22;11392;57.390;-2.468;2024-03-23T07:24:11;6.30;99.90
22450;DHT22;11392;57.390;-2.468;2024-03-23T07:26:37;6.20;99.90
22450;DHT22;11392;57.390;-2.468;2024-03-23T07:29:06;6.10;99.90
22450;DHT22;11392;57.390;-2.468;2024-03-23T07:31:32;6.00;99.90
22450;DHT22;11392;57.390;-2.468;2024-03-23T07:33:58;5.90;99.90
22450;DHT22;11392;57.390;-2.468;2024-03-23T07:36:24;5.90;99.90
22450;DHT22;11392;57.390;-2.468;2024-03-23T07:38:50;5.80;99.90
22450;DHT22;11392;57.390;-2.468;2024-03-23T07:41:18;5.60;99.90
22450;DHT22;11392;57.390;-2.468;2024-03-23T07:43:45;5.60;99.90
22450;DHT22;11392;57.390;-2.468;2024-03-23T07:46:11;5.70;99.90
22450;DHT22;11392;57.390;-2.468;2024-03-23T07:48:40;6.30;99.90
22450;DHT22;11392;57.390;-2.468;2024-03-23T07:51:15;6.70;99.90
22450;DHT22;11392;57.390;-2.468;2024-03-23T07:53:43;6.60;99.90
22450;DHT22;11392;57.390;-2.468;2024-03-23T07:56:10;6.50;99.90
22450;DHT22;11392;57.390;-2.468;2024-03-23T07:58:37;7.20;99.90
22450;DHT22;11392;57.390;-2.468;2024-03-23T08:01:08;7.60;99.90
22450;DHT22;11392;57.390;-2.468;2024-03-23T08:03:35;7.90;99.90
22450;DHT22;11392;57.390;-2.468;2024-03-23T08:06:17;7.80;99.90
22450;DHT22;11392;57.390;-2.468;2024-03-23T08:08:47;7.50;99.90
22450;DHT22;11392;57.390;-2.468;2024-03-23T08:11:13;7.40;99.90
22450;DHT22;11392;57.390;-2.468;2024-03-23T08:13:40;7.20;99.90
22450;DHT22;11392;57.390;-2.468;2024-03-23T08:16:07;7.10;99.90
22450;DHT22;11392;57.390;-2.468;2024-03-23T08:18:34;6.90;99.90
22450;DHT22;11392;57.390;-2.468;2024-03-23T08:21:02;6.90;99.90
22450;DHT22;11392;57.390;-2.468;2024-03-23T08:23:30;6.90;99.90
22450;DHT22;11392;57.390;-2.468;2024-03-23T08:26:06;6.90;99.90
22450;DHT22;11392;57.390;-2.468;2024-03-23T08:28:33;6.90;99.90
22450;DHT22;11392;57.390;-2.468;2024-03-23T08:31:07;6.90;99.90
22450;DHT22;11392;57.390;-2.468;2024-03-23T08:33:34;6.90;99.90
22450;DHT22;11392;57.390;-2.468;2024-03-23T08:36:08;6.90;99.90
22450;DHT22;11392;57.390;-2.468;2024-03-23T08:38:35;6.90;99.90
22450;DHT22;11392;57.390;-2.468;2024-03-23T08:41:03;6.90;99.90
22450;DHT22;11392;57.390;-2.468;2024-03-23T08:43:30;6.80;99.90
22450;DHT22;11392;57.390;-2.468;2024-03-23T08:46:10;6.80;99.90
22450;DHT22;11392;57.390;-2.468;2024-03-23T08:48:39;6.70;99.90
22450;DHT22;11392;57.390;-2.468;2024-03-23T08:51:06;6.60;99.90
22450;DHT22;11392;57.390;-2.468;2024-03-23T08:53:33;6.60;99.90
22450;DHT22;11392;57.390;-2.468;2024-03-23T08:56:00;6.50;99.90
22450;DHT22;11392;57.390;-2.468;2024-03-23T08:58:27;6.50;99.90
22450;DHT22;11392;57.390;-2.468;2024-03-23T09:00:54;6.40;99.90
22450;DHT22;11392;57.390;-2.468;2024-03-23T09:03:24;6.40;99.90
22450;DHT22;11392;57.390;-2.468;2024-03-23T09:05:51;6.40;99.90
22450;DHT22;11392;57.390;-2.468;2024-03-23T09:08:17;6.30;99.90
22450;DHT22;11392;57.390;-2.468;2024-03-23T09:10:43;6.40;99.90
22450;DHT22;11392;57.390;-2.468;2024-03-23T09:13:10;6.50;99.90
22450;DHT22;11392;57.390;-2.468;2024-03-23T09:15:37;6.60;99.90
22450;DHT22;11392;57.390;-2.468;2024-03-23T09:18:03;6.60;99.90
22450;DHT22;11392;57.390;-2.468;2024-03-23T09:20:33;6.40;99.90
22450;DHT22;11392;57.390;-2.468;2024-03-23T09:22:59;6.20;99.90
22450;DHT22;11392;57.390;-2.468;2024-03-23T09:25:25;6.20;99.90
22450;DHT22;11392;57.390;-2.468;2024-03-23T09:27:51;6.30;99.90
22450;DHT22;11392;57.390;-2.468;2024-03-23T09:30:17;6.40;99.90
22450;DHT22;11392;57.390;-2.468;2024-03-23T09:32:44;6.60;99.90
22450;DHT22;11392;57.390;-2.468;2024-03-23T09:35:10;6.90;99.90
22450;DHT22;11392;57.390;-2.468;2024-03-23T09:37:38;7.10;99.90
22450;DHT22;11392;57.390;-2.468;2024-03-23T09:40:09;7.00;99.90
22450;DHT22;11392;57.390;-2.468;2024-03-23T09:42:35;6.90;99.90
22450;DHT22;11392;57.390;-2.468;2024-03-23T09:45:01;6.70;99.90
22450;DHT22;11392;57.390;-2.468;2024-03-23T09:47:28;6.70;99.90
22450;DHT22;11392;57.390;-2.468;2024-03-23T09:49:55;6.60;99.90
22450;DHT22;11392;57.390;-2.468;2024-03-23T09:52:21;6.60;99.90
22450;DHT22;11392;57.390;-2.468;2024-03-23T09:54:47;6.70;99.90
22450;DHT22;11392;57.390;-2.468;2024-03-23T09:57:13;6.80;99.90
22450;DHT22;11392;57.390;-2.468;2024-03-23T09:59:39;7.10;99.90
22450;DHT22;11392;57.390;-2.468;2024-03-23T10:02:05;7.40;99.90
22450;DHT22;11392;57.390;-2.468;2024-03-23T10:04:41;8.00;99.90
22450;DHT22;11392;57.390;-2.468;2024-03-23T10:09:37;8.20;99.90
22450;DHT22;11392;57.390;-2.468;2024-03-23T10:12:17;8.40;99.90
22450;DHT22;11392;57.390;-2.468;2024-03-23T10:14:44;8.60;99.90
22450;DHT22;11392;57.390;-2.468;2024-03-23T10:17:17;8.70;99.90
22450;DHT22;11392;57.390;-2.468;2024-03-23T10:22:14;9.10;99.90
22450;DHT22;11392;57.390;-2.468;2024-03-23T10:24:41;8.90;99.90
22450;DHT22;11392;57.390;-2.468;2024-03-23T10:27:07;8.70;99.90
22450;DHT22;11392;57.390;-2.468;2024-03-23T10:29:33;8.80;99.90
22450;DHT22;11392;57.390;-2.468;2024-03-23T10:32:12;9.10;99.90
22450;DHT22;11392;57.390;-2.468;2024-03-23T10:34:39;9.30;99.90
22450;DHT22;11392;57.390;-2.468;2024-03-23T10:37:05;9.40;99.90
22450;DHT22;11392;57.390;-2.468;2024-03-23T10:39:39;9.60;99.90
22450;DHT22;11392;57.390;-2.468;2024-03-23T10:42:09;9.80;99.90
22450;DHT22;11392;57.390;-2.468;2024-03-23T10:44:39;9.60;99.90
22450;DHT22;11392;57.390;-2.468;2024-03-23T10:47:05;9.60;99.90
22450;DHT22;11392;57.390;-2.468;2024-03-23T10:49:33;9.50;99.90
22450;DHT22;11392;57.390;-2.468;2024-03-23T10:52:03;9.50;99.90
22450;DHT22;11392;57.390;-2.468;2024-03-23T10:54:30;9.50;99.90
22450;DHT22;11392;57.390;-2.468;2024-03-23T10:57:13;9.20;99.90
22450;DHT22;11392;57.390;-2.468;2024-03-23T10:59:40;9.20;99.90
22450;DHT22;11392;57.390;-2.468;2024-03-23T11:02:06;9.40;99.90
22450;DHT22;11392;57.390;-2.468;2024-03-23T11:04:36;9.80;99.90
22450;DHT22;11392;57.390;-2.468;2024-03-23T11:10:00;10.50;99.90
22450;DHT22;11392;57.390;-2.468;2024-03-23T11:12:27;10.50;99.90
22450;DHT22;11392;57.390;-2.468;2024-03-23T11:17:28;9.70;99.90
22450;DHT22;11392;57.390;-2.468;2024-03-23T11:20:01;9.70;99.90
22450;DHT22;11392;57.390;-2.468;2024-03-23T11:25:25;9.10;99.90
22450;DHT22;11392;57.390;-2.468;2024-03-23T11:27:53;8.90;99.90
22450;DHT22;11392;57.390;-2.468;2024-03-23T11:30:26;8.90;99.90
22450;DHT22;11392;57.390;-2.468;2024-03-23T11:32:55;8.90;99.90
22450;DHT22;11392;57.390;-2.468;2024-03-23T11:35:31;8.90;99.90
22450;DHT22;11392;57.390;-2.468;2024-03-23T11:38:11;9.00;99.90
22450;DHT22;11392;57.390;-2.468;2024-03-23T11:40:39;9.20;99.90
22450;DHT22;11392;57.390;-2.468;2024-03-23T11:43:07;9.10;99.90
22450;DHT22;11392;57.390;-2.468;2024-03-23T11:45:38;9.20;99.90
22450;DHT22;11392;57.390;-2.468;2024-03-23T11:48:15;9.20;99.90
22450;DHT22;11392;57.390;-2.468;2024-03-23T11:50:45;9.40;99.90
22450;DHT22;11392;57.390;-2.468;2024-03-23T11:55:45;9.30;99.90
22450;DHT22;11392;57.390;-2.468;2024-03-23T11:58:12;9.90;99.90
22450;DHT22;11392;57.390;-2.468;2024-03-23T12:00:39;10.10;99.90
22450;DHT22;11392;57.390;-2.468;2024-03-23T12:03:05;9.60;99.90
22450;DHT22;11392;57.390;-2.468;2024-03-23T12:05:33;9.10;99.90
22450;DHT22;11392;57.390;-2.468;2024-03-23T12:08:19;9.30;99.90
22450;DHT22;11392;57.390;-2.468;2024-03-23T12:10:51;9.20;99.90
22450;DHT22;11392;57.390;-2.468;2024-03-23T12:13:19;9.60;99.90
22450;DHT22;11392;57.390;-2.468;2024-03-23T12:15:46;9.80;99.90
22450;DHT22;11392;57.390;-2.468;2024-03-23T12:18:13;9.40;99.90
22450;DHT22;11392;57.390;-2.468;2024-03-23T12:20:39;9.10;99.90
22450;DHT22;11392;57.390;-2.468;2024-03-23T12:23:10;9.00;99.90
22450;DHT22;11392;57.390;-2.468;2024-03-23T12:25:38;8.90;99.90
22450;DHT22;11392;57.390;-2.468;2024-03-23T12:28:05;8.70;99.90
22450;DHT22;11392;57.390;-2.468;2024-03-23T12:30:36;8.40;99.90
22450;DHT22;11392;57.390;-2.468;2024-03-23T12:33:04;8.30;99.90
22450;DHT22;11392;57.390;-2.468;2024-03-23T12:35:31;8.30;99.90
22450;DHT22;11392;57.390;-2.468;2024-03-23T12:37:57;8.90;99.90
22450;DHT22;11392;57.390;-2.468;2024-03-23T12:40:23;9.20;99.90
22450;DHT22;11392;57.390;-2.468;2024-03-23T12:42:49;9.10;99.90
22450;DHT22;11392;57.390;-2.468;2024-03-23T12:45:15;8.90;99.90
22450;DHT22;11392;57.390;-2.468;2024-03-23T12:47:41;9.00;99.90
22450;DHT22;11392;57.390;-2.468;2024-03-23T12:50:07;9.60;99.90
22450;DHT22;11392;57.390;-2.468;2024-03-23T12:52:33;10.10;99.90
22450;DHT22;11392;57.390;-2.468;2024-03-23T12:54:59;10.10;99.90
22450;DHT22;11392;57.390;-2.468;2024-03-23T12:57:26;10.30;99.90
22450;DHT22;11392;57.390;-2.468;2024-03-23T12:59:53;10.00;99.90
22450;DHT22;11392;57.390;-2.468;2024-03-23T13:02:20;9.50;99.90
22450;DHT22;11392;57.390;-2.468;2024-03-23T13:04:50;9.10;99.90
22450;DHT22;11392;57.390;-2.468;2024-03-23T13:07:17;9.30;99.90
22450;DHT22;11392;57.390;-2.468;2024-03-23T13:09:43;9.60;99.90
22450;DHT22;11392;57.390;-2.468;2024-03-23T13:12:09;9.40;99.90
22450;DHT22;11392;57.390;-2.468;2024-03-23T13:14:36;9.20;99.90
22450;DHT22;11392;57.390;-2.468;2024-03-23T13:17:02;9.10;99.90
22450;DHT22;11392;57.390;-2.468;2024-03-23T13:19:29;8.90;99.90
22450;DHT22;11392;57.390;-2.468;2024-03-23T13:22:00;9.00;99.90
22450;DHT22;11392;57.390;-2.468;2024-03-23T13:24:27;9.00;99.90
22450;DHT22;11392;57.390;-2.468;2024-03-23T13:26:55;9.00;99.90
22450;DHT22;11392;57.390;-2.468;2024-03-23T13:29:22;8.90;99.90
22450;DHT22;11392;57.390;-2.468;2024-03-23T13:31:48;8.90;99.90
22450;DHT22;11392;57.390;-2.468;2024-03-23T13:34:15;8.60;99.90
22450;DHT22;11392;57.390;-2.468;2024-03-23T13:36:44;8.50;99.90
22450;DHT22;11392;57.390;-2.468;2024-03-23T13:39:11;8.30;99.90
22450;DHT22;11392;57.390;-2.468;2024-03-23T13:41:41;8.20;99.90
22450;DHT22;11392;57.390;-2.468;2024-03-23T13:44:08;8.00;99.90
22450;DHT22;11392;57.390;-2.468;2024-03-23T13:46:37;8.30;99.90
22450;DHT22;11392;57.390;-2.468;2024-03-23T13:49:04;9.00;99.90
22450;DHT22;11392;57.390;-2.468;2024-03-23T13:51:30;9.80;99.90
22450;DHT22;11392;57.390;-2.468;2024-03-23T13:53:57;10.20;99.90
22450;DHT22;11392;57.390;-2.468;2024-03-23T13:56:23;10.00;99.90
22450;DHT22;11392;57.390;-2.468;2024-03-23T13:58:49;9.60;99.90
22450;DHT22;11392;57.390;-2.468;2024-03-23T14:01:16;9.30;99.90
22450;DHT22;11392;57.390;-2.468;2024-03-23T14:03:43;9.40;99.90
22450;DHT22;11392;57.390;-2.468;2024-03-23T14:06:10;9.40;99.90
22450;DHT22;11392;57.390;-2.468;2024-03-23T14:08:37;9.70;99.90
22450;DHT22;11392;57.390;-2.468;2024-03-23T14:11:08;9.80;99.90
22450;DHT22;11392;57.390;-2.468;2024-03-23T14:13:35;9.60;99.90
22450;DHT22;11392;57.390;-2.468;2024-03-23T14:16:07;9.40;99.90
22450;DHT22;11392;57.390;-2.468;2024-03-23T14:18:33;9.80;99.90
22450;DHT22;11392;57.390;-2.468;2024-03-23T14:21:00;9.70;99.90
22450;DHT22;11392;57.390;-2.468;2024-03-23T14:23:28;9.40;99.90
22450;DHT22;11392;57.390;-2.468;2024-03-23T14:25:58;8.80;99.90
22450;DHT22;11392;57.390;-2.468;2024-03-23T14:28:25;8.60;99.90
22450;DHT22;11392;57.390;-2.468;2024-03-23T14:30:54;8.40;99.90
22450;DHT22;11392;57.390;-2.468;2024-03-23T14:33:21;7.80;99.90
22450;DHT22;11392;57.390;-2.468;2024-03-23T14:35:54;7.60;99.90
22450;DHT22;11392;57.390;-2.468;2024-03-23T14:38:21;7.20;99.90
22450;DHT22;11392;57.390;-2.468;2024-03-23T14:40:47;7.10;99.90
22450;DHT22;11392;57.390;-2.468;2024-03-23T14:43:13;6.90;99.90
22450;DHT22;11392;57.390;-2.468;2024-03-23T14:46:13;6.90;99.90
22450;DHT22;11392;57.390;-2.468;2024-03-23T14:48:41;6.80;99.90
22450;DHT22;11392;57.390;-2.468;2024-03-23T14:51:09;6.70;99.90
22450;DHT22;11392;57.390;-2.468;2024-03-23T14:53:39;6.90;99.90
22450;DHT22;11392;57.390;-2.468;2024-03-23T14:56:08;7.10;99.90
22450;DHT22;11392;57.390;-2.468;2024-03-23T14:58:37;7.30;99.90
22450;DHT22;11392;57.390;-2.468;2024-03-23T15:01:08;7.30;99.90
22450;DHT22;11392;57.390;-2.468;2024-03-23T15:03:37;7.50;99.90
22450;DHT22;11392;57.390;-2.468;2024-03-23T15:06:05;7.70;99.90
22450;DHT22;11392;57.390;-2.468;2024-03-23T15:08:32;8.10;99.90
22450;DHT22;11392;57.390;-2.468;2024-03-23T15:11:01;8.50;99.90
22450;DHT22;11392;57.390;-2.468;2024-03-23T15:13:36;8.50;99.90
22450;DHT22;11392;57.390;-2.468;2024-03-23T15:16:04;8.10;99.90
22450;DHT22;11392;57.390;-2.468;2024-03-23T15:18:30;8.00;99.90
22450;DHT22;11392;57.390;-2.468;2024-03-23T15:20:58;8.00;99.90
22450;DHT22;11392;57.390;-2.468;2024-03-23T15:23:32;7.90;99.90
22450;DHT22;11392;57.390;-2.468;2024-03-23T15:25:59;7.60;99.90
22450;DHT22;11392;57.390;-2.468;2024-03-23T15:28:27;7.20;99.90
22450;DHT22;11392;57.390;-2.468;2024-03-23T15:31:04;6.90;99.90
22450;DHT22;11392;57.390;-2.468;2024-03-23T15:33:30;7.10;99.90
22450;DHT22;11392;57.390;-2.468;2024-03-23T15:36:03;7.50;99.90
22450;DHT22;11392;57.390;-2.468;2024-03-23T15:38:30;7.60;99.90
22450;DHT22;11392;57.390;-2.468;2024-03-23T15:40:57;7.80;99.90
22450;DHT22;11392;57.390;-2.468;2024-03-23T15:43:23;7.90;99.90
22450;DHT22;11392;57.390;-2.468;2024-03-23T15:45:56;8.00;99.90
22450;DHT22;11392;57.390;-2.468;2024-03-23T15:48:23;7.80;99.90
22450;DHT22;11392;57.390;-2.468;2024-03-23T15:50:52;8.00;99.90
22450;DHT22;11392;57.390;-2.468;2024-03-23T15:53:19;7.80;99.90
22450;DHT22;11392;57.390;-2.468;2024-03-23T15:55:52;7.90;99.90
22450;DHT22;11392;57.390;-2.468;2024-03-23T15:58:18;7.70;99.90
22450;DHT22;11392;57.390;-2.468;2024-03-23T16:00:44;7.40;99.90
22450;DHT22;11392;57.390;-2.468;2024-03-23T16:03:10;7.50;99.90
22450;DHT22;11392;57.390;-2.468;2024-03-23T16:05:36;7.30;99.90
22450;DHT22;11392;57.390;-2.468;2024-03-23T16:08:03;7.20;99.90
22450;DHT22;11392;57.390;-2.468;2024-03-23T16:10:31;7.40;99.90
22450;DHT22;11392;57.390;-2.468;2024-03-23T16:12:57;7.30;99.90
22450;DHT22;11392;57.390;-2.468;2024-03-23T16:15:23;7.20;99.90
22450;DHT22;11392;57.390;-2.468;2024-03-23T16:17:49;7.00;99.90
22450;DHT22;11392;57.390;-2.468;2024-03-23T16:20:15;6.90;99.90
22450;DHT22;11392;57.390;-2.468;2024-03-23T16:22:41;6.80;99.90
22450;DHT22;11392;57.390;-2.468;2024-03-23T16:25:07;6.70;99.90
22450;DHT22;11392;57.390;-2.468;2024-03-23T16:27:33;6.60;99.90
22450;DHT22;11392;57.390;-2.468;2024-03-23T16:29:59;6.40;99.90
22450;DHT22;11392;57.390;-2.468;2024-03-23T16:32:25;6.20;99.90
22450;DHT22;11392;57.390;-2.468;2024-03-23T16:34:53;6.20;99.90
22450;DHT22;11392;57.390;-2.468;2024-03-23T16:37:19;6.20;99.90
22450;DHT22;11392;57.390;-2.468;2024-03-23T16:39:45;6.20;99.90